createdAt,value
2019-05-21T00:00:17.016Z,8.03
2019-05-21T00:02:46.840Z,5.50
2019-05-21T00:05:16.957Z,4.30
2019-05-21T00:07:47.459Z,6.28
2019-05-21T00:10:17.985Z,5.97
2019-05-21T00:12:48.140Z,5.65
2019-05-21T00:15:18.607Z,5.55
2019-05-21T00:17:48.762Z,4.65
2019-05-21T00:20:19.030Z,5.45
2019-05-21T00:22:48.815Z,6.50
2019-05-21T00:25:19.127Z,3.75
2019-05-21T00:27:49.574Z,4.50
2019-05-21T00:30:39.281Z,8.05
2019-05-21T00:33:27.668Z,4.08
2019-05-21T00:36:35.711Z,5.03
2019-05-21T00:39:42.177Z,4.87
2019-05-21T00:42:11.132Z,4.87
2019-05-21T00:44:43.321Z,6.25
2019-05-21T00:47:14.039Z,5.35
2019-05-21T00:49:44.135Z,4.22
2019-05-21T00:52:14.205Z,5.67
2019-05-21T00:54:44.166Z,5.53
2019-05-21T00:57:14.143Z,6.42
2019-05-21T00:59:44.053Z,5.78
2019-05-21T01:02:14.150Z,8.28
2019-05-21T01:04:59.210Z,5.83
2019-05-21T01:07:16.091Z,6.92
2019-05-21T01:09:46.254Z,6.00
2019-05-21T01:12:16.360Z,6.10
2019-05-21T01:14:46.183Z,6.47
2019-05-21T01:17:16.069Z,6.78
2019-05-21T01:19:46.529Z,4.80
2019-05-21T01:22:16.607Z,5.65
2019-05-21T01:24:46.742Z,6.08
2019-05-21T01:27:16.923Z,6.87
2019-05-21T01:29:46.972Z,4.58
2019-05-21T01:32:18.029Z,6.62
2019-05-21T01:34:48.188Z,5.78
2019-05-21T01:37:18.224Z,5.35
2019-05-21T01:39:48.333Z,7.87
2019-05-21T01:42:18.451Z,6.20
2019-05-21T01:44:48.555Z,6.85
2019-05-21T01:47:18.597Z,6.70
2019-05-21T01:49:48.616Z,6.75
2019-05-21T01:52:18.685Z,5.30
2019-05-21T01:54:48.823Z,13.62
2019-05-21T01:57:18.853Z,10.00
2019-05-21T01:59:48.925Z,4.92
2019-05-21T02:02:19.021Z,5.62
2019-05-21T02:04:49.051Z,6.03
2019-05-21T02:07:19.042Z,6.60
2019-05-21T02:09:57.914Z,8.33
2019-05-21T02:12:28.581Z,5.62
2019-05-21T02:14:58.730Z,7.10
2019-05-21T02:17:28.841Z,6.83
2019-05-21T02:19:59.327Z,6.12
2019-05-21T02:22:29.522Z,5.12
2019-05-21T02:24:59.629Z,5.95
2019-05-21T02:27:29.480Z,7.30
2019-05-21T02:29:59.658Z,5.10
2019-05-21T02:32:29.758Z,7.17
2019-05-21T02:35:00.159Z,6.70
2019-05-21T02:37:30.267Z,5.37
2019-05-21T02:40:00.813Z,9.35
2019-05-21T02:42:30.970Z,7.72
2019-05-21T02:45:01.159Z,7.78
2019-05-21T02:47:31.335Z,7.00
2019-05-21T02:50:01.359Z,7.58
2019-05-21T02:52:31.459Z,8.35
2019-05-21T02:55:01.610Z,9.00
2019-05-21T02:57:43.806Z,7.67
2019-05-21T03:00:25.684Z,8.45
2019-05-21T03:02:55.622Z,8.58
2019-05-21T03:05:26.105Z,9.68
2019-05-21T03:07:56.158Z,6.45
2019-05-21T03:10:27.314Z,9.53
2019-05-21T03:12:57.428Z,7.80
2019-05-21T03:15:27.540Z,9.25
2019-05-21T03:17:57.565Z,8.18
2019-05-21T03:20:27.755Z,6.03
2019-05-21T03:22:57.847Z,7.62
2019-05-21T03:25:28.286Z,7.78
2019-05-21T03:27:58.442Z,9.83
2019-05-21T03:30:29.002Z,8.13
2019-05-21T03:32:59.088Z,7.67
2019-05-21T03:35:29.128Z,7.58
2019-05-21T03:37:59.318Z,7.22
2019-05-21T03:40:29.896Z,9.60
2019-05-21T03:42:59.934Z,7.28
2019-05-21T03:45:30.043Z,10.68
2019-05-21T03:48:00.327Z,8.05
2019-05-21T03:50:31.327Z,9.33
2019-05-21T03:53:01.432Z,7.87
2019-05-21T03:55:31.464Z,9.13
2019-05-21T03:58:01.501Z,10.60
2019-05-21T04:00:32.593Z,9.20
2019-05-21T04:03:02.700Z,8.50
2019-05-21T04:05:32.892Z,11.18
2019-05-21T04:08:02.992Z,9.15
2019-05-21T04:10:33.117Z,12.07
2019-05-21T04:13:06.146Z,10.50
2019-05-21T04:15:42.104Z,8.05
2019-05-21T04:18:13.777Z,8.93
2019-05-21T04:20:43.884Z,9.15
2019-05-21T04:23:13.912Z,11.30
2019-05-21T04:25:44.015Z,8.08
2019-05-21T04:28:14.157Z,9.83
2019-05-21T04:30:44.553Z,10.08
2019-05-21T04:33:14.614Z,10.28
2019-05-21T04:35:44.656Z,10.38
2019-05-21T04:38:14.630Z,8.83
2019-05-21T04:40:44.513Z,9.00
2019-05-21T04:43:14.592Z,9.60
2019-05-21T04:45:44.611Z,9.48
2019-05-21T04:48:14.710Z,11.90
2019-05-21T04:50:44.785Z,9.83
2019-05-21T04:53:14.898Z,10.65
2019-05-21T04:55:45.513Z,9.80
2019-05-21T04:58:15.465Z,10.53
2019-05-21T05:00:45.385Z,11.10
2019-05-21T05:03:15.491Z,12.70
2019-05-21T05:05:45.614Z,11.00
2019-05-21T05:08:15.731Z,11.05
2019-05-21T05:10:49.167Z,10.40
2019-05-21T05:13:17.943Z,12.20
2019-05-21T05:15:48.040Z,13.08
2019-05-21T05:18:18.193Z,9.73
2019-05-21T05:20:48.332Z,10.72
2019-05-21T05:23:18.469Z,16.60
2019-05-21T05:25:51.567Z,11.75
2019-05-21T05:28:21.650Z,13.25
2019-05-21T05:30:51.787Z,12.00
2019-05-21T05:33:21.881Z,13.22
2019-05-21T05:35:52.037Z,10.55
2019-05-21T05:38:22.146Z,15.30
2019-05-21T05:40:52.182Z,10.28
2019-05-21T05:43:22.287Z,9.13
2019-05-21T05:45:52.447Z,12.10
2019-05-21T05:48:22.925Z,15.83
2019-05-21T05:50:54.749Z,11.18
2019-05-21T05:53:24.798Z,11.95
2019-05-21T05:55:54.897Z,12.25
2019-05-21T05:58:24.981Z,10.13
2019-05-21T06:00:54.980Z,8.88
2019-05-21T06:03:25.016Z,15.40
2019-05-21T06:05:55.221Z,12.00
2019-05-21T06:08:25.288Z,10.28
2019-05-21T06:10:55.328Z,11.38
2019-05-21T06:13:25.362Z,14.53
2019-05-21T06:15:55.487Z,11.53
2019-05-21T06:18:25.620Z,11.35
2019-05-21T06:20:55.669Z,11.80
2019-05-21T06:23:25.826Z,11.93
2019-05-21T06:25:55.854Z,12.40
2019-05-21T06:28:25.997Z,11.97
2019-05-21T06:30:56.036Z,11.48
2019-05-21T06:33:27.202Z,10.93
2019-05-21T06:35:58.359Z,13.40
2019-05-21T06:38:28.494Z,11.00
2019-05-21T06:40:58.642Z,12.28
2019-05-21T06:43:28.665Z,12.88
2019-05-21T06:45:58.733Z,13.35
2019-05-21T06:48:28.878Z,13.68
2019-05-21T06:50:58.936Z,17.92
2019-05-21T06:53:28.990Z,16.15
2019-05-21T06:55:59.483Z,18.05
2019-05-21T06:58:29.537Z,16.87
2019-05-21T07:00:59.649Z,18.98
2019-05-21T07:03:29.687Z,19.95
2019-05-21T07:05:59.809Z,22.55
2019-05-21T07:08:34.638Z,22.65
2019-05-21T07:11:01.579Z,18.70
2019-05-21T07:13:31.745Z,21.42
2019-05-21T07:16:01.905Z,19.95
2019-05-21T07:18:31.970Z,21.52
2019-05-21T07:21:02.105Z,22.62
2019-05-21T07:23:32.215Z,22.62
2019-05-21T07:26:04.619Z,20.08
2019-05-21T07:28:34.808Z,24.87
2019-05-21T07:31:05.136Z,23.05
2019-05-21T07:33:35.309Z,21.62
2019-05-21T07:36:05.493Z,23.10
2019-05-21T07:38:52.146Z,24.18
2019-05-21T07:41:07.659Z,22.15
2019-05-21T07:43:37.724Z,24.82
2019-05-21T07:46:07.825Z,23.30
2019-05-21T07:48:37.939Z,27.17
2019-05-21T07:51:08.043Z,26.30
2019-05-21T07:53:38.151Z,23.65
2019-05-21T07:56:08.272Z,25.60
2019-05-21T07:58:38.393Z,26.50
2019-05-21T08:01:08.528Z,23.85
2019-05-21T08:03:38.639Z,28.30
2019-05-21T08:06:08.691Z,23.87
2019-05-21T08:08:38.804Z,27.37
2019-05-21T08:11:09.026Z,29.52
2019-05-21T08:13:41.354Z,25.72
2019-05-21T08:16:11.816Z,26.65
2019-05-21T08:18:41.939Z,25.77
2019-05-21T08:21:11.973Z,31.95
2019-05-21T08:23:42.581Z,28.07
2019-05-21T08:26:12.683Z,25.17
2019-05-21T08:28:42.738Z,23.73
2019-05-21T08:31:13.243Z,19.87
2019-05-21T08:33:43.292Z,30.70
2019-05-21T08:36:13.347Z,19.92
2019-05-21T08:38:43.388Z,23.90
2019-05-21T08:41:13.927Z,17.55
2019-05-21T08:43:44.129Z,18.23
2019-05-21T08:46:14.426Z,19.27
2019-05-21T08:48:45.009Z,19.50
2019-05-21T08:51:15.131Z,22.67
2019-05-21T08:53:45.295Z,19.55
2019-05-21T08:56:15.375Z,20.27
2019-05-21T08:58:45.900Z,17.48
2019-05-21T09:01:15.998Z,18.17
2019-05-21T09:03:46.269Z,16.10
2019-05-21T09:06:16.863Z,20.62
2019-05-21T09:08:46.993Z,16.82
2019-05-21T09:11:17.182Z,18.45
2019-05-21T09:13:47.303Z,12.85
2019-05-21T09:16:17.505Z,14.98
2019-05-21T09:18:47.641Z,17.45
2019-05-21T09:21:17.845Z,19.87
2019-05-21T09:23:48.313Z,18.70
2019-05-21T09:26:18.508Z,19.45
2019-05-21T09:28:48.684Z,21.10
2019-05-21T09:31:18.738Z,20.68
2019-05-21T09:33:48.853Z,23.75
2019-05-21T09:36:18.912Z,17.57
2019-05-21T09:38:49.024Z,14.50
2019-05-21T09:41:19.229Z,18.80
2019-05-21T09:43:49.344Z,14.90
2019-05-21T09:46:19.550Z,20.57
2019-05-21T09:48:49.631Z,22.45
2019-05-21T09:51:20.391Z,15.85
2019-05-21T09:53:50.504Z,17.20
2019-05-21T09:56:37.895Z,19.95
2019-05-21T09:59:27.225Z,19.07
2019-05-21T10:02:16.854Z,15.18
2019-05-21T10:04:46.925Z,17.82
2019-05-21T10:07:17.014Z,18.32
2019-05-21T10:09:47.219Z,20.50
2019-05-21T10:12:17.389Z,15.68
2019-05-21T10:14:47.511Z,12.30
2019-05-21T10:17:17.794Z,13.05
2019-05-21T10:19:47.920Z,15.48
2019-05-21T10:22:18.121Z,12.95
2019-05-21T10:24:48.235Z,11.50
2019-05-21T10:27:18.364Z,11.93
2019-05-21T10:29:48.480Z,11.10
2019-05-21T10:32:18.601Z,11.53
2019-05-21T10:34:49.111Z,13.53
2019-05-21T10:37:19.203Z,12.07
2019-05-21T10:39:49.373Z,10.32
2019-05-21T10:42:19.478Z,13.50
2019-05-21T10:44:49.603Z,11.25
2019-05-21T10:47:19.845Z,11.22
2019-05-21T10:49:50.028Z,11.53
2019-05-21T10:52:20.217Z,11.15
2019-05-21T10:54:50.409Z,14.15
2019-05-21T10:57:20.538Z,11.08
2019-05-21T10:59:50.575Z,11.45
2019-05-21T11:02:25.231Z,11.55
2019-05-21T11:05:02.819Z,11.60
2019-05-21T11:07:33.150Z,9.73
2019-05-21T11:10:04.601Z,11.40
2019-05-21T11:12:34.877Z,11.88
2019-05-21T11:15:08.010Z,12.85
2019-05-21T11:17:50.053Z,11.22
2019-05-21T11:20:10.368Z,10.40
2019-05-21T11:22:40.486Z,10.82
2019-05-21T11:25:11.146Z,10.58
2019-05-21T11:27:41.653Z,12.58
2019-05-21T11:30:12.317Z,15.90
2019-05-21T11:32:42.499Z,14.15
2019-05-21T11:35:13.094Z,10.93
2019-05-21T11:37:43.118Z,8.55
2019-05-21T11:40:15.537Z,10.60
2019-05-21T11:42:45.656Z,9.53
2019-05-21T11:45:30.991Z,8.15
2019-05-21T11:47:47.953Z,9.08
2019-05-21T11:50:18.158Z,7.35
2019-05-21T11:52:48.349Z,8.83
2019-05-21T11:55:18.429Z,9.15
2019-05-21T11:57:48.515Z,9.23
2019-05-21T12:00:21.808Z,7.25
2019-05-21T12:05:21.308Z,12.80
2019-05-21T12:07:51.894Z,8.60
2019-05-21T12:10:21.989Z,9.40
2019-05-21T12:12:52.130Z,9.40
2019-05-21T12:15:22.321Z,11.48
2019-05-21T12:17:52.350Z,12.78
2019-05-21T12:20:36.015Z,8.10
2019-05-21T12:22:54.277Z,5.50
2019-05-21T12:25:24.328Z,5.55
2019-05-21T12:27:54.460Z,7.40
2019-05-21T12:30:24.640Z,9.40
2019-05-21T12:32:54.744Z,10.65
2019-05-21T12:35:24.910Z,8.88
2019-05-21T12:37:55.062Z,10.28
2019-05-21T12:40:25.354Z,10.68
2019-05-21T12:42:55.379Z,10.20
2019-05-21T12:45:25.454Z,9.55
2019-05-21T12:47:55.511Z,8.73
2019-05-21T12:50:26.315Z,10.40
2019-05-21T12:52:56.402Z,10.32
2019-05-21T12:55:26.642Z,11.65
2019-05-21T12:57:56.819Z,8.78
2019-05-21T13:00:32.907Z,10.65
2019-05-21T13:03:03.018Z,14.38
2019-05-21T13:05:33.059Z,9.93
2019-05-21T13:08:03.288Z,11.78
2019-05-21T13:10:33.530Z,10.95
2019-05-21T13:13:03.635Z,16.25
2019-05-21T13:15:33.742Z,15.63
2019-05-21T13:18:04.260Z,13.08
2019-05-21T13:20:34.374Z,15.20
2019-05-21T13:23:04.775Z,12.65
2019-05-21T13:25:36.266Z,11.73
2019-05-21T13:28:06.487Z,11.10
2019-05-21T13:30:36.567Z,10.63
2019-05-21T13:33:07.027Z,13.58
2019-05-21T13:35:37.223Z,10.30
2019-05-21T13:38:07.321Z,10.98
2019-05-21T13:40:37.512Z,12.45
2019-05-21T13:43:07.627Z,10.85
2019-05-21T13:45:38.030Z,9.98
2019-05-21T13:48:08.321Z,14.00
2019-05-21T13:50:38.506Z,16.55
2019-05-21T13:53:09.030Z,17.57
2019-05-21T13:55:39.084Z,13.78
2019-05-21T13:58:09.698Z,12.80
2019-05-21T14:00:44.881Z,10.78
2019-05-21T14:03:15.021Z,15.00
2019-05-21T14:05:45.366Z,15.08
2019-05-21T14:08:15.970Z,13.38
2019-05-21T14:10:47.433Z,14.18
2019-05-21T14:13:17.542Z,12.70
2019-05-21T14:15:48.723Z,15.35
2019-05-21T14:18:18.884Z,11.33
2019-05-21T14:20:49.152Z,14.23
2019-05-21T14:23:19.270Z,14.35
2019-05-21T14:25:49.545Z,14.13
2019-05-21T14:28:20.115Z,15.18
2019-05-21T14:30:50.218Z,17.45
2019-05-21T14:33:20.355Z,16.23
2019-05-21T14:35:50.763Z,15.25
2019-05-21T14:38:21.186Z,18.82
2019-05-21T14:40:51.369Z,17.52
2019-05-21T14:43:21.525Z,17.67
2019-05-21T14:45:51.634Z,17.30
2019-05-21T14:48:21.669Z,23.57
2019-05-21T14:50:51.737Z,19.30
2019-05-21T14:53:21.839Z,17.80
2019-05-21T14:55:52.199Z,21.02
2019-05-21T14:58:22.686Z,22.58
2019-05-21T15:00:52.715Z,20.77
2019-05-21T15:03:25.278Z,17.50
2019-05-21T15:05:54.527Z,20.20
2019-05-21T15:08:24.710Z,19.05
2019-05-21T15:10:54.751Z,18.25
2019-05-21T15:13:24.903Z,17.95
2019-05-21T15:15:55.029Z,20.65
2019-05-21T15:18:25.180Z,23.98
2019-05-21T15:21:00.006Z,18.92
2019-05-21T15:23:30.039Z,21.17
2019-05-21T15:26:00.427Z,22.87
2019-05-21T15:28:30.547Z,18.55
2019-05-21T15:31:00.723Z,22.52
2019-05-21T15:33:31.108Z,18.82
2019-05-21T15:36:01.162Z,21.42
2019-05-21T15:38:48.623Z,19.37
2019-05-21T15:41:10.409Z,24.32
2019-05-21T15:43:35.066Z,21.50
2019-05-21T15:46:05.701Z,22.93
2019-05-21T15:48:35.893Z,22.22
2019-05-21T15:51:06.193Z,21.00
2019-05-21T15:53:36.657Z,23.25
2019-05-21T15:56:06.794Z,20.17
2019-05-21T15:58:37.420Z,21.07
2019-05-21T16:01:07.838Z,21.80
2019-05-21T16:03:37.942Z,20.00
2019-05-21T16:06:08.257Z,21.45
2019-05-21T16:08:38.382Z,18.92
2019-05-21T16:11:25.756Z,22.27
2019-05-21T16:13:40.667Z,22.32
2019-05-21T16:16:10.851Z,20.02
2019-05-21T16:18:40.909Z,18.98
2019-05-21T16:21:11.015Z,16.00
2019-05-21T16:23:41.148Z,17.73
2019-05-21T16:26:11.728Z,16.70
2019-05-21T16:28:41.837Z,21.75
2019-05-21T16:31:12.496Z,16.82
2019-05-21T16:33:42.714Z,16.55
2019-05-21T16:36:12.862Z,20.27
2019-05-21T16:38:43.424Z,20.52
2019-05-21T16:41:13.793Z,15.65
2019-05-21T16:43:44.326Z,20.32
2019-05-21T16:46:14.765Z,23.45
2019-05-21T16:48:44.953Z,19.27
2019-05-21T16:51:15.061Z,21.77
2019-05-21T16:53:45.482Z,19.87
2019-05-21T16:56:15.651Z,19.05
2019-05-21T16:58:45.846Z,21.27
2019-05-21T17:01:16.265Z,23.95
2019-05-21T17:03:59.056Z,21.37
2019-05-21T17:06:18.171Z,19.80
2019-05-21T17:08:48.230Z,19.40
2019-05-21T17:11:18.342Z,20.23
2019-05-21T17:13:48.455Z,19.25
2019-05-21T17:16:18.898Z,20.10
2019-05-21T17:18:49.323Z,20.57
2019-05-21T17:21:19.445Z,21.82
2019-05-21T17:23:49.560Z,21.68
2019-05-21T17:26:19.693Z,22.58
2019-05-21T17:28:49.737Z,18.77
2019-05-21T17:31:19.925Z,19.75
2019-05-21T17:33:50.013Z,20.20
2019-05-21T17:36:20.229Z,21.57
2019-05-21T17:38:50.567Z,17.90
2019-05-21T17:41:20.970Z,18.27
2019-05-21T17:43:51.443Z,21.62
2019-05-21T17:46:21.533Z,19.65
2019-05-21T17:48:51.584Z,17.77
2019-05-21T17:51:22.018Z,20.32
2019-05-21T17:53:53.193Z,17.92
2019-05-21T17:56:23.445Z,21.23
2019-05-21T17:58:54.013Z,19.73
2019-05-21T18:01:25.570Z,22.48
2019-05-21T18:03:56.072Z,16.37
2019-05-21T18:06:26.533Z,20.85
2019-05-21T18:08:58.770Z,17.57
2019-05-21T18:11:28.964Z,18.40
2019-05-21T18:13:59.143Z,19.60
2019-05-21T18:16:29.663Z,16.42
2019-05-21T18:18:59.841Z,13.85
2019-05-21T18:21:30.297Z,14.70
2019-05-21T18:24:00.638Z,15.25
2019-05-21T18:26:30.754Z,18.73
2019-05-21T18:29:00.881Z,20.77
2019-05-21T18:31:31.053Z,18.85
2019-05-21T18:34:01.165Z,20.77
2019-05-21T18:36:31.296Z,21.37
2019-05-21T18:39:01.712Z,21.97
2019-05-21T18:41:33.713Z,24.87
2019-05-21T18:44:05.116Z,22.58
2019-05-21T18:46:35.374Z,21.02
2019-05-21T18:49:05.541Z,20.85
2019-05-21T18:51:35.663Z,21.77
2019-05-21T18:54:06.120Z,22.05
2019-05-21T18:56:36.381Z,26.35
2019-05-21T18:59:06.755Z,24.63
2019-05-21T19:01:38.509Z,22.37
2019-05-21T19:04:10.426Z,19.73
2019-05-21T19:06:41.746Z,20.55
2019-05-21T19:09:13.185Z,18.15
2019-05-21T19:11:43.483Z,19.80
2019-05-21T19:14:13.647Z,26.40
2019-05-21T19:16:43.848Z,17.40
2019-05-21T19:19:13.957Z,16.80
2019-05-21T19:21:44.002Z,19.48
2019-05-21T19:24:14.182Z,17.98
2019-05-21T19:26:44.284Z,16.75
2019-05-21T19:29:14.506Z,23.02
2019-05-21T19:31:44.740Z,21.68
2019-05-21T19:34:14.781Z,17.60
2019-05-21T19:36:44.891Z,18.85
2019-05-21T19:39:14.951Z,15.93
2019-05-21T19:41:45.157Z,17.27
2019-05-21T19:44:16.649Z,17.20
2019-05-21T19:46:47.070Z,17.52
2019-05-21T19:49:17.501Z,17.80
2019-05-21T19:51:47.546Z,16.77
2019-05-21T19:54:18.863Z,20.10
2019-05-21T19:56:49.381Z,23.87
2019-05-21T19:59:19.564Z,24.55
2019-05-21T20:01:51.442Z,24.02
2019-05-21T20:04:22.506Z,22.15
2019-05-21T20:06:52.623Z,22.40
2019-05-21T20:09:26.797Z,23.75
2019-05-21T20:14:25.762Z,22.62
2019-05-21T20:16:55.907Z,18.00
2019-05-21T20:19:26.601Z,21.20
2019-05-21T20:21:56.654Z,21.60
2019-05-21T20:24:27.296Z,17.35
2019-05-21T20:26:57.357Z,23.98
2019-05-21T20:29:27.908Z,18.87
2019-05-21T20:31:58.658Z,15.10
2019-05-21T20:34:29.050Z,21.80
2019-05-21T20:36:59.257Z,20.02
2019-05-21T20:39:31.292Z,16.93
2019-05-21T20:42:01.579Z,25.02
2019-05-21T20:44:32.515Z,15.55
2019-05-21T20:47:05.842Z,20.32
2019-05-21T20:49:37.089Z,24.72
2019-05-21T20:52:18.080Z,24.37
2019-05-21T20:54:40.912Z,18.40
2019-05-21T20:57:11.714Z,22.50
2019-05-21T20:59:42.445Z,24.98
2019-05-21T21:02:13.389Z,21.75
2019-05-21T21:04:44.130Z,16.25
2019-05-21T21:07:14.243Z,16.05
2019-05-21T21:09:44.845Z,14.75
2019-05-21T21:12:15.239Z,17.32
2019-05-21T21:14:45.956Z,13.62
2019-05-21T21:17:16.785Z,16.52
2019-05-21T21:19:47.406Z,16.40
2019-05-21T21:22:17.874Z,17.23
2019-05-21T21:24:49.152Z,16.48
2019-05-21T21:27:19.345Z,16.45
2019-05-21T21:29:49.751Z,22.35
2019-05-21T21:32:19.871Z,15.40
2019-05-21T21:34:50.268Z,21.85
2019-05-21T21:37:21.164Z,20.48
2019-05-21T21:39:51.673Z,17.90
2019-05-21T21:42:22.168Z,19.30
2019-05-21T21:44:52.302Z,16.10
2019-05-21T21:47:22.555Z,19.02
2019-05-21T21:49:53.854Z,17.00
2019-05-21T21:52:23.993Z,19.30
2019-05-21T21:54:54.122Z,17.25
2019-05-21T21:57:24.255Z,18.50
2019-05-21T21:59:54.372Z,20.08
2019-05-21T22:02:28.508Z,16.23
2019-05-21T22:04:59.792Z,21.00
2019-05-21T22:07:32.031Z,20.05
2019-05-21T22:10:02.521Z,19.25
2019-05-21T22:12:32.930Z,21.12
2019-05-21T22:15:03.952Z,17.62
2019-05-21T22:17:34.552Z,17.65
2019-05-21T22:20:08.417Z,19.90
2019-05-21T22:22:38.473Z,20.88
2019-05-21T22:25:09.163Z,20.90
2019-05-21T22:27:39.464Z,21.82
2019-05-21T22:30:10.445Z,18.52
2019-05-21T22:32:40.827Z,18.87
2019-05-21T22:35:11.199Z,16.50
2019-05-21T22:37:41.645Z,18.02
2019-05-21T22:40:12.229Z,20.88
2019-05-21T22:42:42.306Z,17.95
2019-05-21T22:45:12.556Z,19.80
2019-05-21T22:47:42.672Z,19.65
2019-05-21T22:50:13.250Z,17.45
2019-05-21T22:52:43.373Z,18.80
2019-05-21T22:55:15.156Z,18.67
2019-05-21T22:57:46.267Z,22.35
2019-05-21T23:00:16.481Z,20.65
2019-05-21T23:02:47.300Z,23.57
2019-05-21T23:05:17.515Z,23.85
2019-05-21T23:07:48.885Z,22.32
2019-05-21T23:10:19.952Z,21.85
2019-05-21T23:12:50.071Z,23.57
2019-05-21T23:15:24.890Z,32.70
2019-05-21T23:18:10.094Z,30.82
2019-05-21T23:21:00.402Z,25.97
2019-05-21T23:23:34.143Z,23.85
2019-05-21T23:26:05.366Z,24.65
2019-05-21T23:28:37.820Z,26.50
2019-05-21T23:31:08.794Z,22.00
2019-05-21T23:33:39.312Z,32.80
2019-05-21T23:36:10.161Z,31.65
2019-05-21T23:38:41.310Z,28.47
2019-05-21T23:41:11.633Z,28.25
2019-05-21T23:43:42.014Z,29.07
2019-05-21T23:46:12.998Z,30.48
2019-05-21T23:48:43.776Z,28.05
2019-05-21T23:51:13.888Z,26.75
2019-05-21T23:53:44.028Z,26.23
2019-05-21T23:56:14.133Z,28.75
2019-05-21T23:58:47.431Z,30.90
